createdAt,value
2022-12-05T00:04:42.781Z,4.62
2022-12-05T00:10:07.125Z,4.65
2022-12-05T00:15:31.597Z,4.59
2022-12-05T00:20:54.604Z,4.57
2022-12-05T00:26:17.989Z,4.51
2022-12-05T00:31:42.818Z,4.48
2022-12-05T00:37:06.060Z,4.59
2022-12-05T00:42:29.249Z,4.58
2022-12-05T00:47:53.694Z,4.60
2022-12-05T00:53:16.770Z,4.56
2022-12-05T00:58:40.161Z,4.55
2022-12-05T01:04:06.568Z,4.46
2022-12-05T01:09:29.751Z,4.55
2022-12-05T01:14:52.805Z,4.60
2022-12-05T01:20:17.274Z,4.69
2022-12-05T01:25:41.014Z,4.80
2022-12-05T01:31:06.756Z,4.70
2022-12-05T01:36:31.592Z,4.70
2022-12-05T01:41:54.831Z,4.70
2022-12-05T01:47:18.823Z,4.66
2022-12-05T01:52:43.411Z,4.72
2022-12-05T01:58:07.517Z,4.72
2022-12-05T02:03:30.696Z,4.71
2022-12-05T02:08:55.702Z,4.73
2022-12-05T02:14:25.964Z,4.67
2022-12-05T02:20:11.692Z,4.72
2022-12-05T02:25:53.406Z,4.83
2022-12-05T02:31:20.197Z,4.80
2022-12-05T02:36:46.064Z,4.75
2022-12-05T02:42:12.142Z,4.87
2022-12-05T02:47:39.807Z,4.92
2022-12-05T02:53:06.019Z,4.90
2022-12-05T02:58:33.238Z,5.00
2022-12-05T03:03:59.521Z,5.03
2022-12-05T03:09:25.545Z,5.04
2022-12-05T03:14:52.570Z,5.01
2022-12-05T03:20:23.784Z,5.02
2022-12-05T03:25:52.072Z,5.01
2022-12-05T03:31:15.885Z,5.04
2022-12-05T03:36:42.595Z,5.07
2022-12-05T03:42:11.165Z,5.01
2022-12-05T03:47:39.125Z,5.00
2022-12-05T03:53:19.687Z,4.97
2022-12-05T03:58:46.209Z,5.09
2022-12-05T04:04:13.779Z,5.18
2022-12-05T04:09:41.412Z,5.18
2022-12-05T04:15:07.640Z,5.41
2022-12-05T04:20:50.972Z,5.50
2022-12-05T04:26:24.525Z,5.54
2022-12-05T04:31:51.141Z,5.52
2022-12-05T04:37:19.626Z,5.53
2022-12-05T04:42:45.053Z,5.55
2022-12-05T04:48:13.227Z,5.50
2022-12-05T04:53:36.853Z,5.55
2022-12-05T04:59:01.312Z,5.43
2022-12-05T05:04:28.377Z,5.42
2022-12-05T05:09:51.521Z,5.50
2022-12-05T05:15:16.051Z,5.59
2022-12-05T05:20:40.380Z,5.57
2022-12-05T05:26:03.528Z,5.50
2022-12-05T05:31:28.565Z,5.64
2022-12-05T05:36:52.980Z,5.71
2022-12-05T05:42:16.136Z,5.77
2022-12-05T05:47:40.806Z,5.80
2022-12-05T05:53:03.871Z,5.81
2022-12-05T05:58:26.965Z,5.85
2022-12-05T06:03:51.772Z,5.79
2022-12-05T06:09:14.991Z,5.78
2022-12-05T06:14:38.136Z,5.83
2022-12-05T06:20:02.738Z,5.63
2022-12-05T06:25:25.854Z,5.55
2022-12-05T06:30:49.038Z,5.71
2022-12-05T06:36:15.137Z,5.81
2022-12-05T06:41:38.221Z,5.99
2022-12-05T06:47:01.728Z,5.73
2022-12-05T06:52:26.194Z,5.82
2022-12-05T06:57:52.198Z,5.83
2022-12-05T07:03:15.361Z,5.74
2022-12-05T07:08:41.879Z,5.57
2022-12-05T07:14:14.674Z,5.67
2022-12-05T07:19:42.327Z,5.70
2022-12-05T07:25:07.601Z,5.77
2022-12-05T07:30:31.842Z,5.73
2022-12-05T07:35:54.909Z,5.93
2022-12-05T07:41:21.770Z,6.16
2022-12-05T07:46:44.869Z,6.17
2022-12-05T07:52:07.988Z,6.37
2022-12-05T07:57:32.636Z,6.19
2022-12-05T08:02:55.810Z,6.24
2022-12-05T08:08:19.016Z,5.92
2022-12-05T08:13:44.115Z,5.67
2022-12-05T08:19:08.944Z,5.85
2022-12-05T08:24:32.028Z,6.14
2022-12-05T08:29:56.791Z,6.25
2022-12-05T08:35:20.119Z,6.23
2022-12-05T08:40:43.151Z,6.18
2022-12-05T08:46:10.579Z,6.08
2022-12-05T08:51:34.393Z,6.25
2022-12-05T08:56:57.511Z,6.36
2022-12-05T09:02:22.079Z,6.40
2022-12-05T09:07:45.362Z,6.53
2022-12-05T09:13:08.614Z,6.59
2022-12-05T09:18:33.025Z,6.41
2022-12-05T09:23:56.319Z,6.43
2022-12-05T09:29:19.380Z,6.47
2022-12-05T09:34:44.035Z,6.54
2022-12-05T09:40:08.467Z,6.57
2022-12-05T09:45:35.606Z,6.71
2022-12-05T09:51:01.965Z,6.56
2022-12-05T09:56:27.802Z,6.49
2022-12-05T10:01:57.157Z,6.83
2022-12-05T10:07:24.399Z,6.82
2022-12-05T10:12:55.994Z,6.67
2022-12-05T10:18:28.704Z,6.76
2022-12-05T10:23:58.962Z,6.96
2022-12-05T10:29:25.008Z,6.97
2022-12-05T10:34:48.132Z,7.00
2022-12-05T10:40:15.235Z,6.86
2022-12-05T10:45:42.414Z,7.03
2022-12-05T10:51:07.378Z,7.09
2022-12-05T10:56:39.967Z,7.25
2022-12-05T11:02:04.082Z,7.10
2022-12-05T11:07:31.960Z,6.98
2022-12-05T11:12:58.368Z,6.88
2022-12-05T11:18:29.040Z,6.88
2022-12-05T11:23:52.116Z,6.82
2022-12-05T11:29:30.596Z,6.95
2022-12-05T11:34:57.295Z,7.03
2022-12-05T11:40:30.077Z,6.93
2022-12-05T11:46:05.661Z,6.98
2022-12-05T11:51:38.528Z,6.98
2022-12-05T11:57:05.406Z,6.99
2022-12-05T12:02:40.113Z,7.21
2022-12-05T12:08:09.502Z,7.59
2022-12-05T12:13:43.949Z,7.53
2022-12-05T12:19:17.752Z,7.52
2022-12-05T12:24:59.436Z,7.72
2022-12-05T12:30:25.951Z,7.61
2022-12-05T12:35:53.491Z,7.90
2022-12-05T12:41:30.615Z,8.12
2022-12-05T12:46:55.485Z,7.89
2022-12-05T12:52:24.423Z,8.11
2022-12-05T12:57:58.363Z,8.04
2022-12-05T13:03:25.149Z,7.90
2022-12-05T13:08:52.239Z,7.90
2022-12-05T13:14:17.297Z,7.83
2022-12-05T13:19:43.592Z,7.66
2022-12-05T13:25:13.413Z,7.83
2022-12-05T13:30:56.619Z,7.60
2022-12-05T13:36:38.326Z,7.64
2022-12-05T13:42:15.022Z,7.79
2022-12-05T13:47:46.499Z,7.81
2022-12-05T13:53:25.012Z,7.58
2022-12-05T13:58:51.213Z,7.74
2022-12-05T14:04:41.860Z,7.61
2022-12-05T14:10:05.808Z,7.64
2022-12-05T14:15:33.573Z,7.58
2022-12-05T14:21:04.659Z,7.36
2022-12-05T14:26:37.948Z,7.39
2022-12-05T14:32:12.803Z,7.39
2022-12-05T14:37:37.033Z,7.23
2022-12-05T14:43:02.029Z,7.55
2022-12-05T14:48:30.545Z,7.34
2022-12-05T14:53:53.630Z,7.26
2022-12-05T14:59:25.169Z,7.26
2022-12-05T15:04:53.999Z,7.15
2022-12-05T15:10:21.638Z,6.98
2022-12-05T15:15:47.131Z,7.05
2022-12-05T15:21:18.154Z,6.93
2022-12-05T15:26:47.319Z,6.74
2022-12-05T15:32:17.941Z,6.72
2022-12-05T15:37:47.699Z,6.81
2022-12-05T15:43:29.394Z,6.53
2022-12-05T15:48:53.502Z,6.48
2022-12-05T15:54:19.080Z,6.37
2022-12-05T15:59:44.986Z,6.30
2022-12-05T16:05:20.696Z,6.29
2022-12-05T16:10:45.159Z,6.30
2022-12-05T16:16:08.529Z,6.30
2022-12-05T16:21:37.998Z,6.26
2022-12-05T16:27:07.071Z,6.21
2022-12-05T16:32:30.155Z,6.23
2022-12-05T16:38:04.198Z,6.19
2022-12-05T16:43:41.994Z,6.15
2022-12-05T16:49:24.121Z,6.26
2022-12-05T16:54:48.293Z,6.22
2022-12-05T17:00:15.927Z,6.26
2022-12-05T17:05:38.999Z,6.16
2022-12-05T17:11:03.633Z,6.12
2022-12-05T17:16:28.642Z,6.01
2022-12-05T17:21:51.832Z,6.12
2022-12-05T17:27:15.234Z,6.20
2022-12-05T17:32:39.696Z,6.23
2022-12-05T17:38:04.210Z,6.19
2022-12-05T17:43:27.265Z,6.21
2022-12-05T17:48:52.555Z,6.22
2022-12-05T17:54:15.588Z,6.33
2022-12-05T17:59:38.940Z,6.38
2022-12-05T18:05:03.441Z,6.65
2022-12-05T18:10:26.472Z,6.60
2022-12-05T18:15:49.935Z,6.61
2022-12-05T18:21:14.438Z,6.58
2022-12-05T18:26:37.562Z,6.58
2022-12-05T18:32:00.690Z,6.56
2022-12-05T18:37:25.349Z,6.64
2022-12-05T18:42:48.454Z,6.68
2022-12-05T18:48:37.660Z,6.79
2022-12-05T18:53:57.019Z,6.78
2022-12-05T18:59:22.083Z,6.71
2022-12-05T19:04:45.860Z,6.62
2022-12-05T19:10:11.255Z,6.69
2022-12-05T19:15:34.407Z,6.76
2022-12-05T19:20:57.492Z,6.68
2022-12-05T19:26:22.189Z,6.72
2022-12-05T19:31:45.812Z,6.61
2022-12-05T19:37:08.926Z,6.61
2022-12-05T19:42:33.732Z,6.56
2022-12-05T19:47:56.766Z,6.59
2022-12-05T19:53:20.112Z,6.61
2022-12-05T19:58:44.846Z,6.66
2022-12-05T20:04:09.815Z,6.62
2022-12-05T20:09:34.416Z,6.64
2022-12-05T20:14:58.903Z,6.73
2022-12-05T20:20:22.017Z,6.72
2022-12-05T20:25:45.161Z,6.52
2022-12-05T20:31:11.556Z,6.43
2022-12-05T20:36:36.028Z,6.41
2022-12-05T20:41:59.160Z,6.47
2022-12-05T20:47:23.642Z,6.44
2022-12-05T20:52:47.179Z,6.44
2022-12-05T20:58:10.297Z,6.44
2022-12-05T21:03:34.931Z,6.37
2022-12-05T21:08:58.109Z,6.39
2022-12-05T21:14:21.444Z,6.36
2022-12-05T21:19:46.446Z,6.34
2022-12-05T21:25:09.576Z,6.44
2022-12-05T21:30:35.233Z,6.40
2022-12-05T21:35:59.655Z,6.39
2022-12-05T21:41:22.718Z,6.31
2022-12-05T21:46:45.850Z,6.38
2022-12-05T21:52:10.453Z,6.32
2022-12-05T21:57:33.612Z,6.32
2022-12-05T22:02:56.761Z,6.39
2022-12-05T22:08:21.320Z,6.47
2022-12-05T22:13:44.488Z,6.30
2022-12-05T22:19:07.849Z,6.47
2022-12-05T22:24:32.807Z,6.43
2022-12-05T22:29:56.065Z,6.27
2022-12-05T22:35:19.290Z,6.25
2022-12-05T22:40:43.806Z,6.23
2022-12-05T22:46:07.687Z,6.13
2022-12-05T22:51:30.827Z,6.21
2022-12-05T22:56:55.270Z,6.15
2022-12-05T23:02:18.545Z,6.20
2022-12-05T23:07:41.790Z,6.18
2022-12-05T23:13:06.464Z,5.96
2022-12-05T23:18:29.731Z,5.71
2022-12-05T23:23:54.569Z,5.54
2022-12-05T23:29:19.286Z,5.46
2022-12-05T23:34:42.624Z,5.51
2022-12-05T23:40:07.336Z,5.60
2022-12-05T23:45:31.975Z,5.52
2022-12-05T23:50:59.812Z,5.55
2022-12-05T23:56:25.107Z,5.35
